sensor_id;sensor_type;location;lat;lon;timestamp;temperature;humidity
9816;DHT22;4947;44.526;11.360;2023-04-15T00:00:10;12.40;92.90
9816;DHT22;4947;44.526;11.360;2023-04-15T00:02:39;12.50;92.80
9816;DHT22;4947;44.526;11.360;2023-04-15T00:05:07;12.40;93.60
9816;DHT22;4947;44.526;11.360;2023-04-15T00:07:34;12.50;92.90
9816;DHT22;4947;44.526;11.360;2023-04-15T00:10:02;12.40;93.30
9816;DHT22;4947;44.526;11.360;2023-04-15T00:12:29;12.50;93.10
9816;DHT22;4947;44.526;11.360;2023-04-15T00:14:57;12.40;93.60
9816;DHT22;4947;44.526;11.360;2023-04-15T00:17:24;12.50;93.30
9816;DHT22;4947;44.526;11.360;2023-04-15T00:19:53;12.50;93.60
9816;DHT22;4947;44.526;11.360;2023-04-15T00:22:20;12.40;94.60
9816;DHT22;4947;44.526;11.360;2023-04-15T00:24:48;12.40;94.40
9816;DHT22;4947;44.526;11.360;2023-04-15T00:27:15;12.40;95.20
9816;DHT22;4947;44.526;11.360;2023-04-15T00:29:42;12.40;95.00
9816;DHT22;4947;44.526;11.360;2023-04-15T00:32:09;12.40;95.70
9816;DHT22;4947;44.526;11.360;2023-04-15T00:34:36;12.40;95.90
9816;DHT22;4947;44.526;11.360;2023-04-15T00:37:06;12.50;96.40
9816;DHT22;4947;44.526;11.360;2023-04-15T00:39:33;12.40;97.20
9816;DHT22;4947;44.526;11.360;2023-04-15T00:42:01;12.40;97.80
9816;DHT22;4947;44.526;11.360;2023-04-15T00:44:28;12.30;98.50
9816;DHT22;4947;44.526;11.360;2023-04-15T00:46:56;12.20;99.30
9816;DHT22;4947;44.526;11.360;2023-04-15T00:49:24;12.10;99.50
9816;DHT22;4947;44.526;11.360;2023-04-15T00:51:51;12.10;99.90
9816;DHT22;4947;44.526;11.360;2023-04-15T00:54:20;12.00;99.90
9816;DHT22;4947;44.526;11.360;2023-04-15T00:56:47;12.00;99.90
9816;DHT22;4947;44.526;11.360;2023-04-15T00:59:14;12.00;99.90
9816;DHT22;4947;44.526;11.360;2023-04-15T01:01:43;12.00;99.90
9816;DHT22;4947;44.526;11.360;2023-04-15T01:04:11;12.00;99.90
9816;DHT22;4947;44.526;11.360;2023-04-15T01:06:38;12.00;99.90
9816;DHT22;4947;44.526;11.360;2023-04-15T01:09:05;11.90;99.90
9816;DHT22;4947;44.526;11.360;2023-04-15T01:11:34;11.90;99.90
9816;DHT22;4947;44.526;11.360;2023-04-15T01:14:02;11.80;99.90
9816;DHT22;4947;44.526;11.360;2023-04-15T01:16:29;11.70;99.90
9816;DHT22;4947;44.526;11.360;2023-04-15T01:18:57;11.70;99.90
9816;DHT22;4947;44.526;11.360;2023-04-15T01:21:24;11.80;99.90
9816;DHT22;4947;44.526;11.360;2023-04-15T01:23:51;11.80;99.90
9816;DHT22;4947;44.526;11.360;2023-04-15T01:26:20;11.80;99.90
9816;DHT22;4947;44.526;11.360;2023-04-15T01:28:48;12.00;99.90
9816;DHT22;4947;44.526;11.360;2023-04-15T01:31:16;12.00;99.90
9816;DHT22;4947;44.526;11.360;2023-04-15T01:33:43;12.00;99.90
9816;DHT22;4947;44.526;11.360;2023-04-15T01:36:10;12.00;99.90
9816;DHT22;4947;44.526;11.360;2023-04-15T01:38:38;12.00;99.90
9816;DHT22;4947;44.526;11.360;2023-04-15T01:41:05;11.90;99.90
9816;DHT22;4947;44.526;11.360;2023-04-15T01:43:34;11.90;99.90
9816;DHT22;4947;44.526;11.360;2023-04-15T01:46:02;11.90;99.90
9816;DHT22;4947;44.526;11.360;2023-04-15T01:48:30;11.90;99.90
9816;DHT22;4947;44.526;11.360;2023-04-15T01:50:57;11.80;99.90
9816;DHT22;4947;44.526;11.360;2023-04-15T01:53:25;11.80;99.90
9816;DHT22;4947;44.526;11.360;2023-04-15T01:55:52;11.70;99.90
9816;DHT22;4947;44.526;11.360;2023-04-15T01:58:19;11.80;99.90
9816;DHT22;4947;44.526;11.360;2023-04-15T02:00:49;11.70;99.90
9816;DHT22;4947;44.526;11.360;2023-04-15T02:03:17;11.60;99.90
9816;DHT22;4947;44.526;11.360;2023-04-15T02:05:44;11.60;99.90
9816;DHT22;4947;44.526;11.360;2023-04-15T02:08:11;11.70;99.90
9816;DHT22;4947;44.526;11.360;2023-04-15T02:10:38;11.70;99.90
9816;DHT22;4947;44.526;11.360;2023-04-15T02:13:06;11.60;99.90
9816;DHT22;4947;44.526;11.360;2023-04-15T02:15:36;11.60;1.00
9816;DHT22;4947;44.526;11.360;2023-04-15T02:18:05;11.50;1.00
9816;DHT22;4947;44.526;11.360;2023-04-15T02:20:32;11.50;1.00
9816;DHT22;4947;44.526;11.360;2023-04-15T02:23:00;11.50;1.00
9816;DHT22;4947;44.526;11.360;2023-04-15T02:25:27;11.50;1.00
9816;DHT22;4947;44.526;11.360;2023-04-15T02:27:56;11.40;1.00
9816;DHT22;4947;44.526;11.360;2023-04-15T02:30:23;11.30;1.00
9816;DHT22;4947;44.526;11.360;2023-04-15T02:32:51;11.30;1.00
9816;DHT22;4947;44.526;11.360;2023-04-15T02:35:20;11.30;1.00
9816;DHT22;4947;44.526;11.360;2023-04-15T02:37:47;11.30;1.00
9816;DHT22;4947;44.526;11.360;2023-04-15T02:40:14;11.30;1.00
9816;DHT22;4947;44.526;11.360;2023-04-15T02:42:41;11.40;1.00
9816;DHT22;4947;44.526;11.360;2023-04-15T02:45:09;11.40;1.00
9816;DHT22;4947;44.526;11.360;2023-04-15T02:47:37;11.40;1.00
9816;DHT22;4947;44.526;11.360;2023-04-15T02:50:06;11.40;1.00
9816;DHT22;4947;44.526;11.360;2023-04-15T02:52:36;11.40;1.00
9816;DHT22;4947;44.526;11.360;2023-04-15T02:55:04;11.50;1.00
9816;DHT22;4947;44.526;11.360;2023-04-15T02:57:32;11.50;1.00
9816;DHT22;4947;44.526;11.360;2023-04-15T03:00:01;11.50;1.00
9816;DHT22;4947;44.526;11.360;2023-04-15T03:02:32;11.30;1.00
9816;DHT22;4947;44.526;11.360;2023-04-15T03:04:59;11.30;1.00
9816;DHT22;4947;44.526;11.360;2023-04-15T03:07:26;11.30;1.00
9816;DHT22;4947;44.526;11.360;2023-04-15T03:09:55;11.30;1.00
9816;DHT22;4947;44.526;11.360;2023-04-15T03:12:23;11.30;1.00
9816;DHT22;4947;44.526;11.360;2023-04-15T03:14:51;11.20;1.00
9816;DHT22;4947;44.526;11.360;2023-04-15T03:17:18;11.20;1.00
9816;DHT22;4947;44.526;11.360;2023-04-15T03:19:46;11.20;1.00
9816;DHT22;4947;44.526;11.360;2023-04-15T03:22:13;11.20;1.00
9816;DHT22;4947;44.526;11.360;2023-04-15T03:24:41;11.10;1.00
9816;DHT22;4947;44.526;11.360;2023-04-15T03:27:09;11.10;1.00
9816;DHT22;4947;44.526;11.360;2023-04-15T03:29:37;11.10;1.00
9816;DHT22;4947;44.526;11.360;2023-04-15T03:32:04;11.10;1.00
9816;DHT22;4947;44.526;11.360;2023-04-15T03:34:31;11.00;1.00
9816;DHT22;4947;44.526;11.360;2023-04-15T03:36:59;10.90;1.00
9816;DHT22;4947;44.526;11.360;2023-04-15T03:39:27;11.00;1.00
9816;DHT22;4947;44.526;11.360;2023-04-15T03:41:54;11.00;1.00
9816;DHT22;4947;44.526;11.360;2023-04-15T03:44:23;11.00;1.00
9816;DHT22;4947;44.526;11.360;2023-04-15T03:46:50;11.00;1.00
9816;DHT22;4947;44.526;11.360;2023-04-15T03:49:18;11.00;1.00
9816;DHT22;4947;44.526;11.360;2023-04-15T03:51:47;11.00;1.00
9816;DHT22;4947;44.526;11.360;2023-04-15T03:54:15;10.90;1.00
9816;DHT22;4947;44.526;11.360;2023-04-15T03:56:42;10.90;1.00
9816;DHT22;4947;44.526;11.360;2023-04-15T03:59:10;10.80;1.00
9816;DHT22;4947;44.526;11.360;2023-04-15T04:01:38;10.80;1.00
9816;DHT22;4947;44.526;11.360;2023-04-15T04:04:05;10.80;1.00
9816;DHT22;4947;44.526;11.360;2023-04-15T04:06:33;10.80;1.00
9816;DHT22;4947;44.526;11.360;2023-04-15T04:09:00;10.80;1.00
9816;DHT22;4947;44.526;11.360;2023-04-15T04:11:27;10.80;1.00
9816;DHT22;4947;44.526;11.360;2023-04-15T04:13:57;10.90;1.00
9816;DHT22;4947;44.526;11.360;2023-04-15T04:16:24;10.90;1.00
9816;DHT22;4947;44.526;11.360;2023-04-15T04:18:53;10.80;1.00
9816;DHT22;4947;44.526;11.360;2023-04-15T04:21:20;10.80;1.00
9816;DHT22;4947;44.526;11.360;2023-04-15T04:23:47;10.80;1.00
9816;DHT22;4947;44.526;11.360;2023-04-15T04:26:14;10.80;1.00
9816;DHT22;4947;44.526;11.360;2023-04-15T04:28:42;10.80;1.00
9816;DHT22;4947;44.526;11.360;2023-04-15T04:31:09;10.70;1.00
9816;DHT22;4947;44.526;11.360;2023-04-15T04:33:37;10.60;1.00
9816;DHT22;4947;44.526;11.360;2023-04-15T04:36:06;10.60;1.00
9816;DHT22;4947;44.526;11.360;2023-04-15T04:38:34;10.60;1.00
9816;DHT22;4947;44.526;11.360;2023-04-15T04:41:01;10.60;99.90
9816;DHT22;4947;44.526;11.360;2023-04-15T04:43:28;10.60;99.90
9816;DHT22;4947;44.526;11.360;2023-04-15T04:45:55;10.70;99.90
9816;DHT22;4947;44.526;11.360;2023-04-15T04:48:23;10.70;99.90
9816;DHT22;4947;44.526;11.360;2023-04-15T04:50:50;10.80;99.90
9816;DHT22;4947;44.526;11.360;2023-04-15T04:53:19;10.80;99.90
9816;DHT22;4947;44.526;11.360;2023-04-15T04:55:46;10.80;99.90
9816;DHT22;4947;44.526;11.360;2023-04-15T04:58:14;10.80;99.90
9816;DHT22;4947;44.526;11.360;2023-04-15T05:00:41;10.80;99.90
9816;DHT22;4947;44.526;11.360;2023-04-15T05:03:09;10.80;99.90
9816;DHT22;4947;44.526;11.360;2023-04-15T05:05:36;10.90;99.90
9816;DHT22;4947;44.526;11.360;2023-04-15T05:08:04;10.90;99.90
9816;DHT22;4947;44.526;11.360;2023-04-15T05:10:33;10.90;99.90
9816;DHT22;4947;44.526;11.360;2023-04-15T05:13:00;10.90;99.90
9816;DHT22;4947;44.526;11.360;2023-04-15T05:15:27;10.80;99.90
9816;DHT22;4947;44.526;11.360;2023-04-15T05:17:54;11.00;99.90
9816;DHT22;4947;44.526;11.360;2023-04-15T05:20:22;11.00;99.90
9816;DHT22;4947;44.526;11.360;2023-04-15T05:22:49;11.00;33.70
9816;DHT22;4947;44.526;11.360;2023-04-15T05:25:17;11.00;1.00
9816;DHT22;4947;44.526;11.360;2023-04-15T05:27:45;11.10;37.40
9816;DHT22;4947;44.526;11.360;2023-04-15T05:30:13;11.10;95.40
9816;DHT22;4947;44.526;11.360;2023-04-15T05:32:40;11.10;96.60
9816;DHT22;4947;44.526;11.360;2023-04-15T05:35:07;11.10;13.70
9816;DHT22;4947;44.526;11.360;2023-04-15T05:37:35;11.10;1.00
9816;DHT22;4947;44.526;11.360;2023-04-15T05:40:02;11.10;1.00
9816;DHT22;4947;44.526;11.360;2023-04-15T05:42:30;11.20;1.00
9816;DHT22;4947;44.526;11.360;2023-04-15T05:44:58;11.30;1.00
9816;DHT22;4947;44.526;11.360;2023-04-15T05:47:26;11.30;1.00
9816;DHT22;4947;44.526;11.360;2023-04-15T05:49:54;11.40;99.90
9816;DHT22;4947;44.526;11.360;2023-04-15T05:52:21;11.40;99.90
9816;DHT22;4947;44.526;11.360;2023-04-15T05:54:48;11.50;99.90
9816;DHT22;4947;44.526;11.360;2023-04-15T05:57:15;11.80;1.00
9816;DHT22;4947;44.526;11.360;2023-04-15T05:59:43;12.20;1.00
9816;DHT22;4947;44.526;11.360;2023-04-15T06:02:12;12.60;1.00
9816;DHT22;4947;44.526;11.360;2023-04-15T06:04:39;12.80;99.90
9816;DHT22;4947;44.526;11.360;2023-04-15T06:07:07;12.70;99.90
9816;DHT22;4947;44.526;11.360;2023-04-15T06:09:35;12.80;1.00
9816;DHT22;4947;44.526;11.360;2023-04-15T06:12:02;12.80;1.00
9816;DHT22;4947;44.526;11.360;2023-04-15T06:14:31;12.90;99.90
9816;DHT22;4947;44.526;11.360;2023-04-15T06:16:58;13.10;20.70
9816;DHT22;4947;44.526;11.360;2023-04-15T06:19:27;13.00;99.90
9816;DHT22;4947;44.526;11.360;2023-04-15T06:21:54;13.10;1.00
9816;DHT22;4947;44.526;11.360;2023-04-15T06:24:22;13.10;1.00
9816;DHT22;4947;44.526;11.360;2023-04-15T06:26:50;13.20;1.00
9816;DHT22;4947;44.526;11.360;2023-04-15T06:29:17;13.20;1.00
9816;DHT22;4947;44.526;11.360;2023-04-15T06:31:45;13.30;1.00
9816;DHT22;4947;44.526;11.360;2023-04-15T06:34:13;13.30;99.90
9816;DHT22;4947;44.526;11.360;2023-04-15T06:36:42;13.40;1.00
9816;DHT22;4947;44.526;11.360;2023-04-15T06:39:09;13.40;1.00
9816;DHT22;4947;44.526;11.360;2023-04-15T06:41:36;13.40;99.90
9816;DHT22;4947;44.526;11.360;2023-04-15T06:44:04;13.40;99.90
9816;DHT22;4947;44.526;11.360;2023-04-15T06:46:34;13.40;99.90
9816;DHT22;4947;44.526;11.360;2023-04-15T06:49:01;13.50;1.00
9816;DHT22;4947;44.526;11.360;2023-04-15T06:51:33;13.60;1.00
9816;DHT22;4947;44.526;11.360;2023-04-15T06:54:02;13.50;99.90
9816;DHT22;4947;44.526;11.360;2023-04-15T06:56:30;13.50;99.90
9816;DHT22;4947;44.526;11.360;2023-04-15T06:58:58;13.60;99.90
9816;DHT22;4947;44.526;11.360;2023-04-15T07:01:25;13.60;99.90
9816;DHT22;4947;44.526;11.360;2023-04-15T07:03:53;13.90;1.00
9816;DHT22;4947;44.526;11.360;2023-04-15T07:06:20;14.00;1.00
9816;DHT22;4947;44.526;11.360;2023-04-15T07:08:47;14.30;99.90
9816;DHT22;4947;44.526;11.360;2023-04-15T07:11:16;14.50;60.20
9816;DHT22;4947;44.526;11.360;2023-04-15T07:13:43;14.60;1.00
9816;DHT22;4947;44.526;11.360;2023-04-15T07:16:10;15.00;99.90
9816;DHT22;4947;44.526;11.360;2023-04-15T07:18:37;15.40;99.90
9816;DHT22;4947;44.526;11.360;2023-04-15T07:21:05;15.70;99.90
9816;DHT22;4947;44.526;11.360;2023-04-15T07:23:32;16.30;1.00
9816;DHT22;4947;44.526;11.360;2023-04-15T07:25:59;16.80;1.00
9816;DHT22;4947;44.526;11.360;2023-04-15T07:28:28;16.50;1.00
9816;DHT22;4947;44.526;11.360;2023-04-15T07:30:55;17.10;1.00
9816;DHT22;4947;44.526;11.360;2023-04-15T07:33:23;18.20;99.90
9816;DHT22;4947;44.526;11.360;2023-04-15T07:35:50;18.60;99.90
9816;DHT22;4947;44.526;11.360;2023-04-15T07:38:17;17.70;99.90
9816;DHT22;4947;44.526;11.360;2023-04-15T07:40:45;17.70;99.90
9816;DHT22;4947;44.526;11.360;2023-04-15T07:43:12;18.50;99.90
9816;DHT22;4947;44.526;11.360;2023-04-15T07:45:41;18.60;99.90
9816;DHT22;4947;44.526;11.360;2023-04-15T07:48:09;19.30;99.90
9816;DHT22;4947;44.526;11.360;2023-04-15T07:50:36;19.70;99.90
9816;DHT22;4947;44.526;11.360;2023-04-15T07:53:03;20.00;99.90
9816;DHT22;4947;44.526;11.360;2023-04-15T07:55:30;20.60;99.90
9816;DHT22;4947;44.526;11.360;2023-04-15T07:57:57;21.00;99.90
9816;DHT22;4947;44.526;11.360;2023-04-15T08:00:24;21.20;99.90
9816;DHT22;4947;44.526;11.360;2023-04-15T08:02:55;20.50;99.90
9816;DHT22;4947;44.526;11.360;2023-04-15T08:05:23;20.50;99.90
9816;DHT22;4947;44.526;11.360;2023-04-15T08:07:54;20.10;99.90
9816;DHT22;4947;44.526;11.360;2023-04-15T08:10:21;20.10;99.90
9816;DHT22;4947;44.526;11.360;2023-04-15T08:12:48;19.60;99.90
9816;DHT22;4947;44.526;11.360;2023-04-15T08:15:18;20.10;99.90
9816;DHT22;4947;44.526;11.360;2023-04-15T08:17:45;20.60;99.90
9816;DHT22;4947;44.526;11.360;2023-04-15T08:20:14;20.30;99.90
9816;DHT22;4947;44.526;11.360;2023-04-15T08:22:42;19.70;99.90
9816;DHT22;4947;44.526;11.360;2023-04-15T08:25:09;19.90;99.90
9816;DHT22;4947;44.526;11.360;2023-04-15T08:27:37;20.20;99.90
9816;DHT22;4947;44.526;11.360;2023-04-15T08:30:05;20.60;99.90
9816;DHT22;4947;44.526;11.360;2023-04-15T08:32:33;21.00;99.90
9816;DHT22;4947;44.526;11.360;2023-04-15T08:35:00;21.90;99.90
9816;DHT22;4947;44.526;11.360;2023-04-15T08:37:29;22.70;99.90
9816;DHT22;4947;44.526;11.360;2023-04-15T08:39:56;22.90;99.90
9816;DHT22;4947;44.526;11.360;2023-04-15T08:42:27;23.30;97.00
9816;DHT22;4947;44.526;11.360;2023-04-15T08:44:57;23.70;88.40
9816;DHT22;4947;44.526;11.360;2023-04-15T08:47:25;23.40;88.40
9816;DHT22;4947;44.526;11.360;2023-04-15T08:49:55;23.50;95.10
9816;DHT22;4947;44.526;11.360;2023-04-15T08:52:23;24.50;69.40
9816;DHT22;4947;44.526;11.360;2023-04-15T08:54:55;25.40;50.10
9816;DHT22;4947;44.526;11.360;2023-04-15T08:57:23;25.00;53.10
9816;DHT22;4947;44.526;11.360;2023-04-15T08:59:51;25.50;20.50
9816;DHT22;4947;44.526;11.360;2023-04-15T09:02:19;25.10;23.50
9816;DHT22;4947;44.526;11.360;2023-04-15T09:04:47;25.10;37.30
9816;DHT22;4947;44.526;11.360;2023-04-15T09:07:14;25.50;34.50
9816;DHT22;4947;44.526;11.360;2023-04-15T09:09:41;25.90;14.80
9816;DHT22;4947;44.526;11.360;2023-04-15T09:12:10;26.30;13.70
9816;DHT22;4947;44.526;11.360;2023-04-15T09:14:37;25.70;13.80
9816;DHT22;4947;44.526;11.360;2023-04-15T09:17:09;25.20;16.50
9816;DHT22;4947;44.526;11.360;2023-04-15T09:19:40;25.60;16.70
9816;DHT22;4947;44.526;11.360;2023-04-15T09:22:08;25.30;12.10
9816;DHT22;4947;44.526;11.360;2023-04-15T09:24:37;24.90;19.60
9816;DHT22;4947;44.526;11.360;2023-04-15T09:27:06;25.30;16.00
9816;DHT22;4947;44.526;11.360;2023-04-15T09:29:36;25.70;9.70
9816;DHT22;4947;44.526;11.360;2023-04-15T09:32:11;26.10;11.80
9816;DHT22;4947;44.526;11.360;2023-04-15T09:34:39;26.40;1.00
9816;DHT22;4947;44.526;11.360;2023-04-15T09:37:07;26.40;4.30
9816;DHT22;4947;44.526;11.360;2023-04-15T09:39:45;25.70;1.00
9816;DHT22;4947;44.526;11.360;2023-04-15T09:42:14;25.40;6.60
9816;DHT22;4947;44.526;11.360;2023-04-15T09:44:44;25.20;10.00
9816;DHT22;4947;44.526;11.360;2023-04-15T09:47:26;24.30;20.50
9816;DHT22;4947;44.526;11.360;2023-04-15T09:49:55;24.30;21.10
9816;DHT22;4947;44.526;11.360;2023-04-15T09:52:23;24.20;31.20
9816;DHT22;4947;44.526;11.360;2023-04-15T09:54:53;24.20;27.20
9816;DHT22;4947;44.526;11.360;2023-04-15T09:57:21;24.60;37.00
9816;DHT22;4947;44.526;11.360;2023-04-15T09:59:51;24.30;26.40
9816;DHT22;4947;44.526;11.360;2023-04-15T10:02:19;23.80;24.10
9816;DHT22;4947;44.526;11.360;2023-04-15T10:04:47;23.40;23.70
9816;DHT22;4947;44.526;11.360;2023-04-15T10:07:16;23.20;53.50
9816;DHT22;4947;44.526;11.360;2023-04-15T10:09:45;22.50;59.80
9816;DHT22;4947;44.526;11.360;2023-04-15T10:12:14;21.60;79.00
9816;DHT22;4947;44.526;11.360;2023-04-15T10:14:43;21.20;99.90
9816;DHT22;4947;44.526;11.360;2023-04-15T10:17:14;20.90;98.40
9816;DHT22;4947;44.526;11.360;2023-04-15T10:19:44;20.30;99.90
9816;DHT22;4947;44.526;11.360;2023-04-15T10:22:13;20.10;99.90
9816;DHT22;4947;44.526;11.360;2023-04-15T10:24:40;20.00;99.90
9816;DHT22;4947;44.526;11.360;2023-04-15T10:27:08;19.90;99.90
9816;DHT22;4947;44.526;11.360;2023-04-15T10:29:35;19.90;99.90
9816;DHT22;4947;44.526;11.360;2023-04-15T10:32:03;19.80;99.90
9816;DHT22;4947;44.526;11.360;2023-04-15T10:34:34;19.50;99.90
9816;DHT22;4947;44.526;11.360;2023-04-15T10:37:02;19.40;99.90
9816;DHT22;4947;44.526;11.360;2023-04-15T10:39:43;19.20;99.90
9816;DHT22;4947;44.526;11.360;2023-04-15T10:42:11;19.00;99.90
9816;DHT22;4947;44.526;11.360;2023-04-15T10:44:41;18.60;99.90
9816;DHT22;4947;44.526;11.360;2023-04-15T10:47:12;18.90;99.90
9816;DHT22;4947;44.526;11.360;2023-04-15T10:49:46;18.70;99.90
9816;DHT22;4947;44.526;11.360;2023-04-15T10:52:15;18.70;99.90
9816;DHT22;4947;44.526;11.360;2023-04-15T10:54:43;18.80;99.90
9816;DHT22;4947;44.526;11.360;2023-04-15T10:57:15;18.90;99.90
9816;DHT22;4947;44.526;11.360;2023-04-15T11:00:01;18.90;99.90
9816;DHT22;4947;44.526;11.360;2023-04-15T11:02:45;19.20;99.90
9816;DHT22;4947;44.526;11.360;2023-04-15T11:05:16;19.20;99.90
9816;DHT22;4947;44.526;11.360;2023-04-15T11:07:48;19.30;99.90
9816;DHT22;4947;44.526;11.360;2023-04-15T11:10:50;19.40;99.90
9816;DHT22;4947;44.526;11.360;2023-04-15T11:13:47;19.30;99.90
9816;DHT22;4947;44.526;11.360;2023-04-15T11:16:16;19.40;99.90
9816;DHT22;4947;44.526;11.360;2023-04-15T11:18:52;19.20;99.90
9816;DHT22;4947;44.526;11.360;2023-04-15T11:21:23;19.10;99.90
9816;DHT22;4947;44.526;11.360;2023-04-15T11:23:51;18.90;99.90
9816;DHT22;4947;44.526;11.360;2023-04-15T11:26:18;18.80;99.90
